createdAt,value
2023-07-08T00:01:52.733Z,7.80
2023-07-08T00:04:27.307Z,7.80
2023-07-08T00:07:01.248Z,7.40
2023-07-08T00:09:34.817Z,8.30
2023-07-08T00:12:14.088Z,8.40
2023-07-08T00:14:48.841Z,7.80
2023-07-08T00:17:22.339Z,7.70
2023-07-08T00:19:56.180Z,7.50
2023-07-08T00:22:29.816Z,7.70
2023-07-08T00:25:03.329Z,8.40
2023-07-08T00:27:36.975Z,8.50
2023-07-08T00:30:26.073Z,9.30
2023-07-08T00:33:00.902Z,8.20
2023-07-08T00:35:38.027Z,8.20
2023-07-08T00:38:28.452Z,9.10
2023-07-08T00:41:13.713Z,8.50
2023-07-08T00:43:50.721Z,8.60
2023-07-08T00:46:36.424Z,8.60
2023-07-08T00:49:22.221Z,8.80
2023-07-08T00:51:55.935Z,8.40
2023-07-08T00:54:29.424Z,8.10
2023-07-08T00:57:06.025Z,8.30
2023-07-08T00:59:44.918Z,8.40
2023-07-08T01:02:21.905Z,9.10
2023-07-08T01:04:59.284Z,7.70
2023-07-08T01:07:34.628Z,8.20
2023-07-08T01:10:16.847Z,8.60
2023-07-08T01:12:55.142Z,7.80
2023-07-08T01:15:34.605Z,7.50
2023-07-08T01:18:08.396Z,8.30
2023-07-08T01:20:42.269Z,7.90
2023-07-08T01:23:16.133Z,9.00
2023-07-08T01:25:50.453Z,8.50
2023-07-08T01:28:24.293Z,8.80
2023-07-08T01:30:58.645Z,8.60
2023-07-08T01:33:34.865Z,8.70
2023-07-08T01:36:11.102Z,8.90
2023-07-08T01:38:46.253Z,9.00
2023-07-08T01:41:20.691Z,8.80
2023-07-08T01:43:54.536Z,9.30
2023-07-08T01:46:29.538Z,9.00
2023-07-08T01:49:04.441Z,9.30
2023-07-08T01:51:37.968Z,9.20
2023-07-08T01:54:12.017Z,9.20
2023-07-08T01:56:46.037Z,8.40
2023-07-08T01:59:19.706Z,8.80
2023-07-08T02:01:56.509Z,9.40
2023-07-08T02:04:31.938Z,9.20
2023-07-08T02:07:06.202Z,9.00
2023-07-08T02:09:40.561Z,8.80
2023-07-08T02:12:15.127Z,8.90
2023-07-08T02:14:48.913Z,9.50
2023-07-08T02:17:23.218Z,9.50
2023-07-08T02:19:57.125Z,10.00
2023-07-08T02:22:30.774Z,10.80
2023-07-08T02:25:04.488Z,10.50
2023-07-08T02:27:38.398Z,9.40
2023-07-08T02:30:12.854Z,9.50
2023-07-08T02:32:50.127Z,9.70
2023-07-08T02:35:24.029Z,10.10
2023-07-08T02:37:58.941Z,9.10
2023-07-08T02:40:32.607Z,9.30
2023-07-08T02:43:06.222Z,8.80
2023-07-08T02:45:40.458Z,9.20
2023-07-08T02:48:15.449Z,9.30
2023-07-08T02:50:49.213Z,8.80
2023-07-08T02:53:22.625Z,9.30
2023-07-08T02:55:56.496Z,8.60
2023-07-08T02:58:29.947Z,10.10
2023-07-08T03:01:04.150Z,10.40
2023-07-08T03:03:39.436Z,8.50
2023-07-08T03:06:13.451Z,9.40
2023-07-08T03:08:47.258Z,9.90
2023-07-08T03:11:20.660Z,10.00
2023-07-08T03:13:56.098Z,10.30
2023-07-08T03:16:29.783Z,10.40
2023-07-08T03:19:04.090Z,10.40
2023-07-08T03:21:37.688Z,10.70
2023-07-08T03:24:13.647Z,10.20
2023-07-08T03:26:55.822Z,9.70
2023-07-08T03:29:31.294Z,9.90
2023-07-08T03:32:05.114Z,10.70
2023-07-08T03:34:38.579Z,11.20
2023-07-08T03:37:13.197Z,9.70
2023-07-08T03:39:46.649Z,10.00
2023-07-08T03:42:20.406Z,10.00
2023-07-08T03:44:54.414Z,9.90
2023-07-08T03:47:29.096Z,10.70
2023-07-08T03:50:03.065Z,10.80
2023-07-08T03:52:36.797Z,11.90
2023-07-08T03:55:13.221Z,11.80
2023-07-08T03:57:47.258Z,11.00
2023-07-08T04:00:22.579Z,11.00
2023-07-08T04:02:57.852Z,11.70
2023-07-08T04:05:31.646Z,11.90
2023-07-08T04:08:05.743Z,11.90
2023-07-08T04:10:39.423Z,11.10
2023-07-08T04:13:13.252Z,11.30
2023-07-08T04:15:58.344Z,12.50
2023-07-08T04:18:32.486Z,11.90
2023-07-08T04:23:42.901Z,13.00
2023-07-08T04:26:16.810Z,13.20
2023-07-08T04:28:50.865Z,14.50
2023-07-08T04:31:24.750Z,14.30
2023-07-08T04:33:58.338Z,15.30
2023-07-08T04:36:31.919Z,15.10
2023-07-08T04:39:06.665Z,14.10
2023-07-08T04:41:42.514Z,14.90
2023-07-08T04:44:21.121Z,13.70
2023-07-08T04:46:59.047Z,14.10
2023-07-08T04:49:35.182Z,15.50
2023-07-08T04:52:10.063Z,13.40
2023-07-08T04:54:43.575Z,14.70
2023-07-08T04:57:18.620Z,15.80
2023-07-08T04:59:52.297Z,14.70
2023-07-08T05:02:25.685Z,14.10
2023-07-08T05:04:59.332Z,14.50
2023-07-08T05:07:32.782Z,13.00
2023-07-08T05:10:07.254Z,11.90
2023-07-08T05:12:40.734Z,12.20
2023-07-08T05:15:15.314Z,12.20
2023-07-08T05:17:48.824Z,13.30
2023-07-08T05:20:23.947Z,13.00
2023-07-08T05:22:57.192Z,13.30
2023-07-08T05:25:36.191Z,12.10
2023-07-08T05:28:11.181Z,12.30
2023-07-08T05:30:46.060Z,12.40
2023-07-08T05:33:19.602Z,12.00
2023-07-08T05:35:53.275Z,12.30
2023-07-08T05:38:27.258Z,12.60
2023-07-08T05:41:01.775Z,11.70
2023-07-08T05:43:35.359Z,11.20
2023-07-08T05:46:12.748Z,11.30
2023-07-08T05:48:46.740Z,10.70
2023-07-08T05:51:20.022Z,11.30
2023-07-08T05:53:53.640Z,11.40
2023-07-08T05:56:27.220Z,10.30
2023-07-08T05:59:00.849Z,10.20
2023-07-08T06:01:34.528Z,9.60
2023-07-08T06:04:08.416Z,8.60
2023-07-08T06:06:42.221Z,10.10
2023-07-08T06:09:15.438Z,9.20
2023-07-08T06:11:49.007Z,9.90
2023-07-08T06:14:22.767Z,9.80
2023-07-08T06:16:56.997Z,8.80
2023-07-08T06:19:30.655Z,9.10
2023-07-08T06:22:29.479Z,8.90
2023-07-08T06:24:58.142Z,10.50
2023-07-08T06:27:31.409Z,8.10
2023-07-08T06:30:05.340Z,7.80
2023-07-08T06:32:39.140Z,8.40
2023-07-08T06:35:13.304Z,8.50
2023-07-08T06:37:46.854Z,8.50
2023-07-08T06:40:21.156Z,8.20
2023-07-08T06:42:54.580Z,7.90
2023-07-08T06:45:37.515Z,8.00
2023-07-08T06:48:11.459Z,7.70
2023-07-08T06:50:48.184Z,9.00
2023-07-08T06:53:21.664Z,6.50
2023-07-08T06:55:55.189Z,7.20
2023-07-08T06:58:28.579Z,6.20
2023-07-08T07:01:02.769Z,6.60
2023-07-08T07:03:36.521Z,5.30
2023-07-08T07:06:10.146Z,5.20
2023-07-08T07:08:43.441Z,5.40
2023-07-08T07:11:16.723Z,5.50
2023-07-08T07:13:50.449Z,4.60
2023-07-08T07:16:23.763Z,4.50
2023-07-08T07:18:57.438Z,4.80
2023-07-08T07:21:32.334Z,4.10
2023-07-08T07:24:08.298Z,4.90
2023-07-08T07:26:42.220Z,4.90
2023-07-08T07:29:17.034Z,4.50
2023-07-08T07:31:53.023Z,4.10
2023-07-08T07:34:27.144Z,4.40
2023-07-08T07:37:00.727Z,4.30
2023-07-08T07:39:34.022Z,4.30
2023-07-08T07:42:08.624Z,5.20
2023-07-08T07:44:42.139Z,4.50
2023-07-08T07:47:16.438Z,4.30
2023-07-08T07:49:50.349Z,4.10
2023-07-08T07:52:25.618Z,4.10
2023-07-08T07:54:59.052Z,4.20
2023-07-08T07:57:32.404Z,3.80
2023-07-08T08:00:06.653Z,3.60
2023-07-08T08:02:48.086Z,3.90
2023-07-08T08:05:21.749Z,4.00
2023-07-08T08:07:55.299Z,3.70
2023-07-08T08:10:28.591Z,3.90
2023-07-08T08:13:02.082Z,3.60
2023-07-08T08:15:35.613Z,4.10
2023-07-08T08:18:09.590Z,3.90
2023-07-08T08:20:42.861Z,3.60
2023-07-08T08:23:16.256Z,4.10
2023-07-08T08:25:50.084Z,3.60
2023-07-08T08:28:23.321Z,4.00
2023-07-08T08:30:56.786Z,3.90
2023-07-08T08:33:30.341Z,3.90
2023-07-08T08:36:04.070Z,3.80
2023-07-08T08:38:37.880Z,3.60
2023-07-08T08:41:17.958Z,3.70
2023-07-08T08:43:55.557Z,3.70
2023-07-08T08:46:37.210Z,3.90
2023-07-08T08:49:27.074Z,3.40
2023-07-08T08:52:02.434Z,3.50
2023-07-08T08:54:35.457Z,3.30
2023-07-08T08:57:20.758Z,3.70
2023-07-08T08:59:58.180Z,3.90
2023-07-08T09:02:59.794Z,3.60
2023-07-08T09:05:33.379Z,3.50
2023-07-08T09:08:15.403Z,3.50
2023-07-08T09:10:52.055Z,3.30
2023-07-08T09:13:32.144Z,3.00
2023-07-08T09:16:12.992Z,3.10
2023-07-08T09:18:57.276Z,3.40
2023-07-08T09:21:36.019Z,3.30
2023-07-08T09:24:18.710Z,3.20
2023-07-08T09:26:54.769Z,3.30
2023-07-08T09:29:28.259Z,3.60
2023-07-08T09:32:03.875Z,3.20
2023-07-08T09:34:48.896Z,3.10
2023-07-08T09:37:31.436Z,3.50
2023-07-08T09:40:19.686Z,3.20
2023-07-08T09:42:55.578Z,3.10
2023-07-08T09:45:29.099Z,3.30
2023-07-08T09:48:04.554Z,2.90
2023-07-08T09:50:40.511Z,3.00
2023-07-08T09:53:17.927Z,3.50
2023-07-08T09:55:52.321Z,3.60
2023-07-08T09:58:30.449Z,3.40
2023-07-08T10:01:12.354Z,3.10
2023-07-08T10:03:46.686Z,3.80
2023-07-08T10:06:24.716Z,3.10
2023-07-08T10:09:04.634Z,3.70
2023-07-08T10:11:42.525Z,3.10
2023-07-08T10:14:27.523Z,3.20
2023-07-08T10:17:01.063Z,3.20
2023-07-08T10:19:34.713Z,2.90
2023-07-08T10:22:24.545Z,2.40
2023-07-08T10:25:09.325Z,3.00
2023-07-08T10:27:49.667Z,2.70
2023-07-08T10:30:27.379Z,3.00
2023-07-08T10:33:34.259Z,3.30
2023-07-08T10:36:21.736Z,3.10
2023-07-08T10:39:08.109Z,3.20
2023-07-08T10:41:55.959Z,3.00
2023-07-08T10:44:35.863Z,3.20
2023-07-08T10:47:24.205Z,3.30
2023-07-08T10:50:10.746Z,3.20
2023-07-08T10:52:54.579Z,3.30
2023-07-08T10:55:42.332Z,3.10
2023-07-08T10:58:39.216Z,2.90
2023-07-08T11:01:18.805Z,2.90
2023-07-08T11:04:10.066Z,2.90
2023-07-08T11:06:52.408Z,2.80
2023-07-08T11:09:31.617Z,2.70
2023-07-08T11:12:22.783Z,3.10
2023-07-08T11:15:00.681Z,3.10
2023-07-08T11:17:40.813Z,2.50
2023-07-08T11:20:21.939Z,2.90
2023-07-08T11:22:59.976Z,3.00
2023-07-08T11:25:36.061Z,2.90
2023-07-08T11:28:15.375Z,2.80
2023-07-08T11:30:53.314Z,3.20
2023-07-08T11:33:29.689Z,2.90
2023-07-08T11:36:06.622Z,3.30
2023-07-08T11:38:50.336Z,3.30
2023-07-08T11:41:26.343Z,3.20
2023-07-08T11:44:02.743Z,3.20
2023-07-08T11:46:37.463Z,3.00
2023-07-08T11:49:18.000Z,2.90
2023-07-08T11:51:53.014Z,3.00
2023-07-08T11:54:32.641Z,2.80
2023-07-08T11:57:12.261Z,3.20
2023-07-08T11:59:46.412Z,3.30
2023-07-08T12:02:22.021Z,3.00
2023-07-08T12:05:03.644Z,3.00
2023-07-08T12:07:40.891Z,3.30
2023-07-08T12:10:19.780Z,3.20
2023-07-08T12:12:53.711Z,3.00
2023-07-08T12:15:30.998Z,3.10
2023-07-08T12:18:09.552Z,3.40
2023-07-08T12:20:45.993Z,3.30
2023-07-08T12:23:23.164Z,2.80
2023-07-08T12:25:58.868Z,2.90
2023-07-08T12:28:32.859Z,3.20
2023-07-08T12:31:13.648Z,3.20
2023-07-08T12:33:48.752Z,3.20
2023-07-08T12:36:26.350Z,3.00
2023-07-08T12:39:03.910Z,3.10
2023-07-08T12:41:39.860Z,3.00
2023-07-08T12:44:21.443Z,3.10
2023-07-08T12:46:58.005Z,2.90
2023-07-08T12:49:31.679Z,2.80
2023-07-08T12:52:05.767Z,2.70
2023-07-08T12:54:39.599Z,2.60
2023-07-08T12:57:14.544Z,2.70
2023-07-08T12:59:49.033Z,2.80
2023-07-08T13:02:25.298Z,3.00
2023-07-08T13:05:04.781Z,2.70
2023-07-08T13:07:43.850Z,2.70
2023-07-08T13:10:26.673Z,2.80
2023-07-08T13:13:05.692Z,2.80
2023-07-08T13:15:43.097Z,2.90
2023-07-08T13:18:21.298Z,3.30
2023-07-08T13:20:56.703Z,2.90
2023-07-08T13:23:31.611Z,2.80
2023-07-08T13:26:15.240Z,3.10
2023-07-08T13:28:50.578Z,2.90
2023-07-08T13:31:26.856Z,2.90
2023-07-08T13:34:00.480Z,2.60
2023-07-08T13:36:38.248Z,2.80
2023-07-08T13:39:17.344Z,2.90
2023-07-08T13:41:52.400Z,3.00
2023-07-08T13:44:26.728Z,2.90
2023-07-08T13:47:02.471Z,3.20
2023-07-08T13:49:46.328Z,3.00
2023-07-08T13:52:23.723Z,2.90
2023-07-08T13:55:02.288Z,2.60
2023-07-08T13:57:39.504Z,3.10
2023-07-08T14:00:15.446Z,2.70
2023-07-08T14:02:50.209Z,2.50
2023-07-08T14:05:24.563Z,2.80
2023-07-08T14:07:58.377Z,3.20
2023-07-08T14:10:31.898Z,2.80
2023-07-08T14:13:06.164Z,3.10
2023-07-08T14:15:41.116Z,2.80
2023-07-08T14:18:16.156Z,2.80
2023-07-08T14:20:50.025Z,2.80
2023-07-08T14:23:24.241Z,3.00
2023-07-08T14:25:58.085Z,3.30
2023-07-08T14:28:31.656Z,2.70
2023-07-08T14:31:06.168Z,2.90
2023-07-08T14:33:40.695Z,3.00
2023-07-08T14:36:15.857Z,3.00
2023-07-08T14:38:49.418Z,2.90
2023-07-08T14:41:22.949Z,2.70
2023-07-08T14:43:57.051Z,2.90
2023-07-08T14:46:31.705Z,3.20
2023-07-08T14:49:12.216Z,2.70
2023-07-08T14:51:45.890Z,2.80
2023-07-08T14:54:21.057Z,3.10
2023-07-08T14:56:58.323Z,3.60
2023-07-08T14:59:34.889Z,2.80
2023-07-08T15:02:22.293Z,3.10
2023-07-08T15:04:55.804Z,3.10
2023-07-08T15:07:31.908Z,2.90
2023-07-08T15:10:06.142Z,2.90
2023-07-08T15:12:40.290Z,3.00
2023-07-08T15:15:27.361Z,3.30
2023-07-08T15:18:02.727Z,2.60
2023-07-08T15:20:41.806Z,2.90
2023-07-08T15:23:15.928Z,3.00
2023-07-08T15:25:50.631Z,3.60
2023-07-08T15:28:38.328Z,3.10
2023-07-08T15:31:14.970Z,3.40
2023-07-08T15:33:49.761Z,3.00
2023-07-08T15:36:24.919Z,3.10
2023-07-08T15:38:59.694Z,3.10
2023-07-08T15:41:35.738Z,2.70
2023-07-08T15:44:10.499Z,3.10
2023-07-08T15:46:46.600Z,3.10
2023-07-08T15:49:22.065Z,3.60
2023-07-08T15:51:55.676Z,3.40
2023-07-08T15:54:29.366Z,3.10
2023-07-08T15:57:06.089Z,3.40
2023-07-08T15:59:42.980Z,3.30
2023-07-08T16:02:30.348Z,3.40
2023-07-08T16:05:04.019Z,3.10
2023-07-08T16:07:37.482Z,3.20
2023-07-08T16:10:12.932Z,3.00
2023-07-08T16:12:48.011Z,3.40
2023-07-08T16:15:27.088Z,3.50
2023-07-08T16:18:01.388Z,3.10
2023-07-08T16:20:35.291Z,3.10
2023-07-08T16:23:08.633Z,3.60
2023-07-08T16:25:47.471Z,3.20
2023-07-08T16:28:30.881Z,3.10
2023-07-08T16:31:05.038Z,3.20
2023-07-08T16:33:39.409Z,3.10
2023-07-08T16:36:17.024Z,3.10
2023-07-08T16:38:51.173Z,3.10
2023-07-08T16:41:29.084Z,3.20
2023-07-08T16:44:05.374Z,3.30
2023-07-08T16:46:38.892Z,3.20
2023-07-08T16:49:13.433Z,2.80
2023-07-08T16:51:46.888Z,3.10
2023-07-08T16:54:21.543Z,2.80
2023-07-08T16:56:54.891Z,2.90
2023-07-08T16:59:28.266Z,2.90
2023-07-08T17:02:01.735Z,2.90
2023-07-08T17:04:35.244Z,2.90
2023-07-08T17:07:12.509Z,3.10
2023-07-08T17:09:46.122Z,2.80
2023-07-08T17:12:21.372Z,2.80
2023-07-08T17:17:28.239Z,3.40
2023-07-08T17:20:17.375Z,3.10
2023-07-08T17:22:51.308Z,3.40
2023-07-08T17:25:27.075Z,3.30
2023-07-08T17:28:00.991Z,3.60
2023-07-08T17:30:36.225Z,3.20
2023-07-08T17:33:10.799Z,4.00
2023-07-08T17:35:44.789Z,3.20
2023-07-08T17:38:22.222Z,3.30
2023-07-08T17:41:00.539Z,3.70
2023-07-08T17:43:35.272Z,3.70
2023-07-08T17:46:16.488Z,3.60
2023-07-08T17:48:53.559Z,3.30
2023-07-08T17:51:32.087Z,3.70
2023-07-08T17:54:06.632Z,3.60
2023-07-08T17:56:42.893Z,3.60
2023-07-08T17:59:20.833Z,4.40
2023-07-08T18:01:54.815Z,4.60
2023-07-08T18:04:28.492Z,4.80
2023-07-08T18:07:02.010Z,5.00
2023-07-08T18:09:35.492Z,4.10
2023-07-08T18:12:14.576Z,4.40
2023-07-08T18:14:49.326Z,4.50
2023-07-08T18:17:22.991Z,4.70
2023-07-08T18:19:56.501Z,4.70
2023-07-08T18:22:30.105Z,4.90
2023-07-08T18:25:03.738Z,4.80
2023-07-08T18:27:37.490Z,5.50
2023-07-08T18:30:15.796Z,5.50
2023-07-08T18:32:51.299Z,5.00
2023-07-08T18:37:58.532Z,5.10
2023-07-08T18:40:34.216Z,5.10
2023-07-08T18:43:17.217Z,5.40
2023-07-08T18:45:51.747Z,5.50
2023-07-08T18:48:26.717Z,5.50
2023-07-08T18:51:01.575Z,6.20
2023-07-08T18:53:35.216Z,5.50
2023-07-08T18:56:08.864Z,5.40
2023-07-08T18:58:42.936Z,5.40
2023-07-08T19:01:23.263Z,5.60
2023-07-08T19:03:59.326Z,5.60
2023-07-08T19:06:34.029Z,6.40
2023-07-08T19:09:07.725Z,5.40
2023-07-08T19:11:43.421Z,6.30
2023-07-08T19:14:19.373Z,6.60
2023-07-08T19:16:52.968Z,6.80
2023-07-08T19:19:26.537Z,7.20
2023-07-08T19:22:04.204Z,7.30
2023-07-08T19:24:38.765Z,6.40
2023-07-08T19:27:20.650Z,7.00
2023-07-08T19:29:54.288Z,6.70
2023-07-08T19:32:28.215Z,6.80
2023-07-08T19:35:01.973Z,8.00
2023-07-08T19:37:35.903Z,8.20
2023-07-08T19:40:14.046Z,8.10
2023-07-08T19:42:50.778Z,7.70
2023-07-08T19:45:27.358Z,8.40
2023-07-08T19:48:01.078Z,8.40
2023-07-08T19:50:34.656Z,8.30
2023-07-08T19:53:09.003Z,7.40
2023-07-08T19:55:42.867Z,9.90
2023-07-08T19:58:16.464Z,11.10
2023-07-08T20:00:49.893Z,8.10
2023-07-08T20:03:23.386Z,7.90
2023-07-08T20:05:57.064Z,8.70
2023-07-08T20:08:34.605Z,7.90
2023-07-08T20:11:08.100Z,9.30
2023-07-08T20:13:42.061Z,15.10
2023-07-08T20:16:22.065Z,17.30
2023-07-08T20:18:57.889Z,11.00
2023-07-08T20:21:33.285Z,17.00
2023-07-08T20:24:08.440Z,37.40
2023-07-08T20:26:46.191Z,27.00
2023-07-08T20:29:20.898Z,18.30
2023-07-08T20:31:54.557Z,11.80
2023-07-08T20:34:29.352Z,10.60
2023-07-08T20:37:03.830Z,10.70
2023-07-08T20:39:37.909Z,11.70
2023-07-08T20:42:18.506Z,11.40
2023-07-08T20:44:54.649Z,11.80
2023-07-08T20:47:37.295Z,11.40
2023-07-08T20:50:18.286Z,11.50
2023-07-08T20:52:53.301Z,10.50
2023-07-08T20:55:31.140Z,10.50
2023-07-08T20:58:05.976Z,11.20
2023-07-08T21:00:39.590Z,11.30
2023-07-08T21:03:18.914Z,11.60
2023-07-08T21:05:55.654Z,10.80
2023-07-08T21:08:37.105Z,10.40
2023-07-08T21:11:16.378Z,9.90
2023-07-08T21:13:51.890Z,10.00
2023-07-08T21:16:28.218Z,9.00
2023-07-08T21:19:08.824Z,10.50
2023-07-08T21:21:44.971Z,11.20
2023-07-08T21:24:20.887Z,10.40
2023-07-08T21:26:56.853Z,10.90
2023-07-08T21:29:31.128Z,10.30
2023-07-08T21:45:34.699Z,9.90
2023-07-08T21:48:11.865Z,10.20
2023-07-08T21:50:49.089Z,10.00
2023-07-08T21:53:27.828Z,9.10
2023-07-08T21:56:02.758Z,9.50
2023-07-08T21:58:36.383Z,9.20
2023-07-08T22:01:18.380Z,8.80
2023-07-08T22:03:51.890Z,9.90
2023-07-08T22:06:25.509Z,9.60
2023-07-08T22:08:59.150Z,9.90
2023-07-08T22:11:35.068Z,11.10
2023-07-08T22:14:12.756Z,10.10
2023-07-08T22:16:51.780Z,9.60
2023-07-08T22:19:31.062Z,10.00
2023-07-08T22:22:04.415Z,9.70
2023-07-08T22:24:37.883Z,10.00
2023-07-08T22:27:12.550Z,9.60
2023-07-08T22:29:46.064Z,10.40
2023-07-08T22:32:19.503Z,9.50
2023-07-08T22:34:52.685Z,9.60
2023-07-08T22:37:25.909Z,9.70
2023-07-08T22:39:59.218Z,11.10
2023-07-08T22:42:32.596Z,10.20
2023-07-08T22:45:06.394Z,10.50
2023-07-08T22:47:39.766Z,10.30
2023-07-08T22:50:15.317Z,10.20
2023-07-08T22:52:52.612Z,10.20
2023-07-08T22:55:31.563Z,9.70
2023-07-08T22:58:05.474Z,9.30
2023-07-08T23:00:40.741Z,9.90
2023-07-08T23:03:14.179Z,9.70
2023-07-08T23:05:52.619Z,9.40
2023-07-08T23:08:31.059Z,9.10
2023-07-08T23:11:05.007Z,10.00
2023-07-08T23:13:42.135Z,9.80
2023-07-08T23:16:29.332Z,8.90
2023-07-08T23:19:03.947Z,9.40
2023-07-08T23:21:37.462Z,9.80
2023-07-08T23:24:11.995Z,8.90
2023-07-08T23:26:46.557Z,9.50
2023-07-08T23:41:33.423Z,10.30
2023-07-08T23:57:28.293Z,10.00
